This is the latest recevied weather packets stored in our database for station/object K5FEP. If no packets are shown the sender has not sent any weather packets the latest 10 day(s).
| Time | Temp. | Humidity | Pressure | Rain* | Wind** | Luminosity | Snow |
|---|---|---|---|---|---|---|---|
| 1788104925 | 28.89° C | 64% | 1022.5 hPa | 0 mm | - | 991 W/m² | - |
| 1788104621 | 28.89° C | 65% | 1022.5 hPa | 0 mm | - | 946 W/m² | - |
| 1788104318 | 28.33° C | 64% | 1022.7 hPa | 0 mm | - | 949 W/m² | - |
| 1788104013 | 28.33° C | 68% | 1022.7 hPa | 0 mm | - | 959 W/m² | - |
| 1788103711 | 27.78° C | 67% | 1022.6 hPa | 0 mm | - | 900 W/m² | - |
| 1788103407 | 26.67° C | 70% | 1022.6 hPa | 0 mm | - | 886 W/m² | - |
| 1788103107 | 27.78° C | 69% | 1022.7 hPa | 0 mm | - | 280 W/m² | - |
| 1788102806 | 27.78° C | 69% | 1022.8 hPa | 0 mm | - | 835 W/m² | - |
| 1788102501 | 27.22° C | 70% | 1023 hPa | 0 mm | - | 833 W/m² | - |
| 1788102201 | 26.11° C | 73% | 1022.8 hPa | 0 mm | - | 385 W/m² | - |
| 1788101895 | 26.11° C | 74% | 1022.8 hPa | 0 mm | - | 250 W/m² | - |
| 1788101590 | 26.11° C | 76% | 1023 hPa | 0 mm | - | 258 W/m² | - |
| 1788101285 | 26.11° C | 76% | 1023 hPa | 0 mm | - | 275 W/m² | - |
| 1788100981 | 26.67° C | 74% | 1023 hPa | 0 mm | - | 270 W/m² | - |
| 1788100677 | 26.67° C | 73% | 1023.1 hPa | 0 mm | - | 295 W/m² | - |
| 1788100376 | 27.22° C | 72% | 1023.1 hPa | 0 mm | - | 761 W/m² | - |
| 1788100071 | 26.11° C | 78% | 1023 hPa | 0 mm | - | 721 W/m² | - |
| 1788099766 | 25° C | 79% | 1023.2 hPa | 0 mm | - | 764 W/m² | - |
| 1788099475 | 25° C | 81% | 1023.2 hPa | 0 mm | - | 550 W/m² | - |
| 1788099157 | 25° C | 81% | 1023.3 hPa | 0 mm | - | 217 W/m² | - |
| 1788098857 | 25° C | 82% | 1023.4 hPa | 0 mm | - | 199 W/m² | - |
| 1788098552 | 25° C | 83% | 1023.3 hPa | 0 mm | - | 357 W/m² | - |
| 1788098246 | 24.44° C | 85% | 1023.3 hPa | 0 mm | - | 450 W/m² | - |
| 1788097942 | 24.44° C | 86% | 1023.4 hPa | 0 mm | - | 399 W/m² | - |
| 1788097638 | 23.89° C | 86% | 1023.4 hPa | 0 mm | - | 478 W/m² | - |
* Rain latest hour (hover to see other rain measurements)
** Current wind speed in m/s (hover to see current wind gust speed)